Time;durP1;ratioP1;P1;durP2;ratioP2;P2;SDS_P1;SDS_P2;PMS_P1;PMS_P2;Temp;Humidity;BMP_temperature;BMP_pressure;BME280_temperature;BME280_humidity;BME280_pressure;Samples;Min_cycle;Max_cycle;Signal;HPM_P1;HPM_P2
2021/10/25 00:02:04;;;;;;;11.43;4.00;;;13.30;86.80;;;;;;5077855;28;20074;-70
2021/10/25 00:04:31;;;;;;;12.00;4.38;;;13.30;87.20;;;;;;5077416;28;20028;-70
2021/10/25 00:06:57;;;;;;;8.50;4.38;;;13.40;88.00;;;;;;5077882;28;20471;-71
2021/10/25 00:09:22;;;;;;;13.13;4.95;;;13.40;88.20;;;;;;5077519;28;20017;-70
2021/10/25 00:11:49;;;;;;;11.73;4.88;;;13.40;88.60;;;;;;5077699;28;20027;-70
2021/10/25 00:14:15;;;;;;;10.55;3.97;;;13.40;88.40;;;;;;5091163;28;20371;-70
2021/10/25 00:16:41;;;;;;;10.52;4.13;;;13.40;88.20;;;;;;5077608;28;20016;-70
2021/10/25 00:19:08;;;;;;;15.00;4.97;;;13.40;88.50;;;;;;5077353;28;20028;-70
2021/10/25 00:21:35;;;;;;;12.52;3.80;;;13.40;88.90;;;;;;5084577;28;20016;-70
2021/10/25 00:24:02;;;;;;;10.73;3.92;;;13.40;88.40;;;;;;5083668;28;20479;-70
2021/10/25 00:26:29;;;;;;;9.65;3.85;;;13.40;88.50;;;;;;5077630;28;20581;-70
2021/10/25 00:28:54;;;;;;;8.30;3.92;;;13.40;88.40;;;;;;5077369;28;20021;-70
2021/10/25 00:31:20;;;;;;;11.25;3.95;;;13.40;88.30;;;;;;5077569;28;20020;-70
2021/10/25 00:33:46;;;;;;;11.52;3.95;;;13.40;88.20;;;;;;5092525;28;20028;-69
2021/10/25 00:36:12;;;;;;;12.15;3.78;;;13.40;88.80;;;;;;5085387;28;20042;-70
2021/10/25 00:38:38;;;;;;;12.70;4.22;;;13.50;89.00;;;;;;5082817;28;20420;-70
2021/10/25 00:41:04;;;;;;;12.13;4.40;;;13.50;88.90;;;;;;5077377;28;20479;-70
2021/10/25 00:43:30;;;;;;;12.88;5.43;;;13.50;89.10;;;;;;5077295;28;20052;-70
2021/10/25 00:45:56;;;;;;;14.88;5.10;;;13.50;89.50;;;;;;5077334;28;20488;-69
2021/10/25 00:48:22;;;;;;;11.82;4.25;;;13.50;89.30;;;;;;5076994;28;20054;-70
2021/10/25 00:50:48;;;;;;;13.73;4.72;;;13.50;89.20;;;;;;5077089;28;20021;-70
2021/10/25 00:53:14;;;;;;;13.65;5.45;;;13.50;89.00;;;;;;5079613;28;20031;-69
2021/10/25 00:55:40;;;;;;;12.15;4.75;;;13.50;89.70;;;;;;5090128;28;20035;-69
2021/10/25 00:58:07;;;;;;;14.43;4.50;;;13.50;89.30;;;;;;5085664;28;20025;-70
2021/10/25 01:00:34;;;;;;;14.05;5.25;;;13.50;89.30;;;;;;5081345;28;20046;-70
2021/10/25 01:03:01;;;;;;;11.15;4.20;;;13.50;90.10;;;;;;5080798;28;20080;-69
2021/10/25 01:05:28;;;;;;;12.27;4.70;;;13.50;90.10;;;;;;5081225;28;20020;-69
2021/10/25 01:07:55;;;;;;;11.82;4.97;;;13.50;90.50;;;;;;5081213;28;20115;-70
2021/10/25 01:10:21;;;;;;;13.95;5.07;;;13.50;90.70;;;;;;5081212;28;20020;-69
2021/10/25 01:12:52;;;;;;;11.57;4.25;;;13.50;90.40;;;;;;5082247;28;20028;-69
2021/10/25 01:15:19;;;;;;;14.73;4.90;;;13.50;90.30;;;;;;5092682;28;20020;-70
2021/10/25 01:17:45;;;;;;;11.85;4.30;;;13.40;90.30;;;;;;5079307;28;20025;-69
2021/10/25 01:20:11;;;;;;;10.25;4.47;;;13.40;90.10;;;;;;5081109;28;20437;-69
2021/10/25 01:22:37;;;;;;;10.88;3.88;;;13.40;90.30;;;;;;5079400;28;20021;-69
2021/10/25 01:25:05;;;;;;;10.02;3.95;;;13.30;90.10;;;;;;5080894;28;20075;-69
2021/10/25 01:27:31;;;;;;;8.50;3.50;;;13.30;89.70;;;;;;5080664;28;20036;-69
2021/10/25 01:29:57;;;;;;;5.63;3.30;;;13.20;89.10;;;;;;5080868;28;20032;-69
2021/10/25 01:32:23;;;;;;;9.05;3.47;;;13.10;88.60;;;;;;5085532;28;20028;-69
2021/10/25 01:34:49;;;;;;;7.68;3.30;;;13.10;88.50;;;;;;5090116;28;20509;-69
2021/10/25 01:37:15;;;;;;;5.43;3.00;;;13.10;88.30;;;;;;5097015;28;20052;-69
2021/10/25 01:39:41;;;;;;;8.98;3.58;;;13.10;88.40;;;;;;5100980;28;20035;-69
2021/10/25 01:42:07;;;;;;;6.70;2.90;;;13.00;88.20;;;;;;5100634;28;20024;-69
2021/10/25 01:44:34;;;;;;;7.35;2.75;;;13.00;88.10;;;;;;5100765;28;20024;-69
2021/10/25 01:47:00;;;;;;;5.00;2.92;;;13.00;88.00;;;;;;5100539;28;20043;-69
2021/10/25 01:49:26;;;;;;;8.18;3.63;;;13.00;87.90;;;;;;5100414;28;20024;-69
2021/10/25 01:51:53;;;;;;;7.30;2.75;;;13.00;88.00;;;;;;5100421;28;20038;-69
2021/10/25 01:54:19;;;;;;;6.15;2.88;;;13.00;87.90;;;;;;5091337;28;20483;-69
2021/10/25 01:56:45;;;;;;;7.03;3.10;;;13.00;87.90;;;;;;5080333;28;20028;-69
2021/10/25 01:59:11;;;;;;;6.72;3.13;;;13.00;87.80;;;;;;5080208;28;20491;-69
2021/10/25 02:01:37;;;;;;;7.40;3.63;;;13.10;87.80;;;;;;5079991;28;20029;-69
2021/10/25 02:04:04;;;;;;;8.77;4.00;;;13.10;87.90;;;;;;5078697;28;20017;-69
2021/10/25 02:06:31;;;;;;;9.00;3.97;;;13.10;88.00;;;;;;5080002;28;20025;-69
2021/10/25 02:08:56;;;;;;;11.18;4.38;;;13.10;88.10;;;;;;5079889;28;20028;-69
2021/10/25 02:11:22;;;;;;;9.60;3.75;;;13.20;88.60;;;;;;5079794;28;20021;-69
2021/10/25 02:13:48;;;;;;;10.63;4.10;;;13.20;89.10;;;;;;5089917;28;20042;-69
2021/10/25 02:16:15;;;;;;;6.88;3.22;;;13.20;89.10;;;;;;5083606;28;20036;-70
2021/10/25 02:18:41;;;;;;;6.30;2.95;;;13.20;89.00;;;;;;5079811;28;20047;-69
2021/10/25 02:21:07;;;;;;;7.10;2.80;;;13.10;88.70;;;;;;5079756;28;20021;-69
2021/10/25 02:23:34;;;;;;;6.90;3.20;;;13.00;88.50;;;;;;5079639;28;20471;-69
2021/10/25 02:26:00;;;;;;;8.07;3.38;;;13.00;88.70;;;;;;5079516;28;20028;-69
2021/10/25 02:28:26;;;;;;;10.77;3.10;;;12.90;89.10;;;;;;5079717;28;20025;-69
2021/10/25 02:30:52;;;;;;;7.18;3.08;;;12.90;88.90;;;;;;5083302;28;20053;-69
2021/10/25 02:33:20;;;;;;;5.32;3.05;;;12.80;88.60;;;;;;5099449;28;20024;-69
2021/10/25 02:35:46;;;;;;;5.10;2.35;;;12.80;88.20;;;;;;5086586;28;20102;-70
2021/10/25 02:38:12;;;;;;;6.65;2.53;;;12.70;88.20;;;;;;5088339;28;20048;-69
2021/10/25 02:40:38;;;;;;;6.85;2.78;;;12.70;88.40;;;;;;5079254;28;20020;-69
2021/10/25 02:43:05;;;;;;;7.35;2.90;;;12.70;89.00;;;;;;5079888;28;20017;-69
2021/10/25 02:45:31;;;;;;;9.57;3.30;;;12.70;89.10;;;;;;5079277;28;20055;-69
2021/10/25 02:47:57;;;;;;;8.80;3.00;;;12.70;89.10;;;;;;5077768;28;20032;-69
2021/10/25 02:50:23;;;;;;;9.13;2.75;;;12.60;88.50;;;;;;5079158;28;20063;-69
2021/10/25 02:52:49;;;;;;;9.10;3.00;;;12.60;88.30;;;;;;5079299;28;20025;-69
2021/10/25 02:55:15;;;;;;;4.80;2.13;;;12.60;88.10;;;;;;5078758;28;20033;-69
2021/10/25 02:57:42;;;;;;;5.20;2.38;;;12.50;87.70;;;;;;5079150;28;20017;-69
2021/10/25 03:00:10;;;;;;;4.88;2.20;;;12.40;87.30;;;;;;5078974;28;20021;-69
2021/10/25 03:02:36;;;;;;;6.18;2.20;;;12.40;87.20;;;;;;5078916;28;20104;-69
2021/10/25 03:05:03;;;;;;;4.15;2.05;;;12.30;87.30;;;;;;5078825;28;20035;-69
2021/10/25 03:07:29;;;;;;;6.40;2.35;;;12.30;87.10;;;;;;5079065;28;20016;-69
2021/10/25 03:09:55;;;;;;;7.10;2.58;;;12.20;87.20;;;;;;5078616;28;20020;-69
2021/10/25 03:12:21;;;;;;;4.22;1.98;;;12.10;87.00;;;;;;5078680;28;20032;-69
2021/10/25 03:14:47;;;;;;;6.40;2.35;;;12.10;87.00;;;;;;5092557;28;20028;-69
2021/10/25 03:17:13;;;;;;;5.43;2.00;;;12.10;87.10;;;;;;5078715;28;20025;-69
2021/10/25 03:19:40;;;;;;;5.57;2.78;;;12.10;87.40;;;;;;5078321;28;20020;-69
2021/10/25 03:22:05;;;;;;;8.07;2.60;;;12.20;89.00;;;;;;5078552;28;20496;-69
2021/10/25 03:24:32;;;;;;;8.05;3.00;;;12.20;90.50;;;;;;5078412;28;20016;-69
2021/10/25 03:26:58;;;;;;;9.73;3.15;;;12.30;90.10;;;;;;5078586;28;20021;-69
2021/10/25 03:29:24;;;;;;;9.38;3.55;;;12.30;90.20;;;;;;5078387;28;20078;-69
2021/10/25 03:31:51;;;;;;;11.13;3.22;;;12.30;90.60;;;;;;5079904;28;20028;-69
2021/10/25 03:34:18;;;;;;;10.52;3.25;;;12.30;90.30;;;;;;5093537;28;20062;-69
2021/10/25 03:36:45;;;;;;;7.82;3.13;;;12.30;90.20;;;;;;5090490;28;20075;-69
2021/10/25 03:39:11;;;;;;;7.00;2.80;;;12.20;89.90;;;;;;5078992;28;20107;-69
2021/10/25 03:41:41;;;;;;;10.13;2.70;;;12.20;89.90;;;;;;5078506;28;20016;-69
2021/10/25 03:44:27;;;;;;;9.55;2.80;;;12.20;90.00;;;;;;5078154;28;20098;-69
2021/10/25 03:47:02;;;;;;;5.93;2.70;;;12.10;90.10;;;;;;5078122;28;20153;-69
2021/10/25 03:49:53;;;;;;;6.38;2.70;;;12.20;90.20;;;;;;5077954;28;20024;-69
2021/10/25 03:52:34;;;;;;;10.18;3.40;;;12.20;91.00;;;;;;5085687;28;20017;-70
2021/10/25 04:00:39;;;;;;;9.68;3.08;;;12.20;92.00;;;;;;5077783;28;20028;-70
2021/10/25 04:27:27;;;;;;;6.10;2.40;;;12.30;91.60;;;;;;5076873;28;20067;-69
2021/10/25 04:30:01;;;;;;;5.32;2.25;;;12.30;91.50;;;;;;5077570;28;20471;-70
2021/10/25 04:32:27;;;;;;;5.72;2.05;;;12.30;91.10;;;;;;5083640;28;20472;-70
2021/10/25 04:34:53;;;;;;;6.78;2.17;;;12.30;90.70;;;;;;5088337;28;20056;-70
2021/10/25 04:37:19;;;;;;;7.10;2.13;;;12.20;90.50;;;;;;5090732;28;20066;-69
2021/10/25 04:39:44;;;;;;;9.05;2.15;;;12.20;90.40;;;;;;5077241;28;20032;-69
2021/10/25 04:42:14;;;;;;;5.78;1.90;;;12.20;90.30;;;;;;5077141;28;20074;-69
2021/10/25 04:44:40;;;;;;;5.60;2.10;;;12.20;90.20;;;;;;5077398;28;20475;-70
2021/10/25 04:47:06;;;;;;;8.20;2.17;;;12.20;90.00;;;;;;5077174;28;20028;-70
2021/10/25 04:49:32;;;;;;;9.18;2.58;;;12.10;89.80;;;;;;5077003;28;20027;-70
2021/10/25 04:51:57;;;;;;;4.57;2.03;;;12.10;89.90;;;;;;5077001;28;20028;-70
2021/10/25 04:54:23;;;;;;;6.20;2.60;;;12.10;89.80;;;;;;5077016;28;20035;-69
2021/10/25 04:56:49;;;;;;;5.38;2.70;;;12.00;89.60;;;;;;5077106;28;20108;-70
2021/10/25 04:59:17;;;;;;;5.18;2.60;;;12.00;89.30;;;;;;5077237;28;20070;-70
2021/10/25 05:01:43;;;;;;;6.25;2.55;;;11.90;89.10;;;;;;5076803;28;20075;-70
2021/10/25 05:04:08;;;;;;;6.05;2.17;;;11.90;89.00;;;;;;5076937;28;20109;-70
2021/10/25 05:06:34;;;;;;;4.40;2.17;;;11.80;88.70;;;;;;5076984;28;20090;-70
2021/10/25 05:09:00;;;;;;;4.68;2.30;;;11.80;88.60;;;;;;5077122;28;20020;-71
2021/10/25 05:11:26;;;;;;;5.45;2.15;;;11.80;88.40;;;;;;5076826;28;20119;-71
2021/10/25 05:13:51;;;;;;;4.50;2.50;;;11.70;88.20;;;;;;5087377;28;20022;-69
2021/10/25 05:16:17;;;;;;;5.03;2.03;;;11.60;88.00;;;;;;5080328;28;20054;-73
2021/10/25 05:18:43;;;;;;;4.40;2.30;;;11.50;87.90;;;;;;5076811;28;20446;-72
2021/10/25 05:21:09;;;;;;;5.53;2.25;;;11.50;87.90;;;;;;5076899;28;20028;-72
2021/10/25 05:23:35;;;;;;;5.28;3.17;;;11.50;88.00;;;;;;5076806;28;20090;-72
2021/10/25 05:26:01;;;;;;;6.55;2.50;;;11.40;88.40;;;;;;5076852;28;20550;-72
2021/10/25 05:28:27;;;;;;;5.65;2.80;;;11.40;88.40;;;;;;5076949;28;20482;-73
2021/10/25 05:30:53;;;;;;;6.05;2.85;;;11.30;88.70;;;;;;5076809;28;20056;-73
2021/10/25 05:33:19;;;;;;;7.55;3.10;;;11.30;89.00;;;;;;5088955;28;20044;-76
2021/10/25 05:35:45;;;;;;;5.18;2.83;;;11.30;89.20;;;;;;5083795;28;20039;-79
2021/10/25 05:38:13;;;;;;;9.48;3.75;;;11.30;89.30;;;;;;5085683;28;20056;-83
2021/10/25 05:40:40;;;;;;;6.45;3.38;;;11.40;89.50;;;;;;5078886;28;20115;-81
2021/10/25 05:43:07;;;;;;;6.50;3.25;;;11.40;89.20;;;;;;5091656;28;20027;-80
2021/10/25 05:45:33;;;;;;;6.57;3.10;;;11.30;89.00;;;;;;5082496;28;20104;-73
2021/10/25 05:47:59;;;;;;;5.00;3.03;;;11.30;89.00;;;;;;5078855;28;20539;-72
2021/10/25 05:50:25;;;;;;;8.00;3.88;;;11.20;88.70;;;;;;5080205;28;20074;-72
2021/10/25 05:52:51;;;;;;;9.95;3.67;;;11.20;88.70;;;;;;5080325;28;20035;-73
2021/10/25 05:55:23;;;;;;;7.03;3.28;;;11.10;88.70;;;;;;5079885;28;20107;-73
2021/10/25 05:57:49;;;;;;;9.70;4.07;;;11.10;88.70;;;;;;5080362;28;20013;-73
2021/10/25 06:00:15;;;;;;;8.82;4.47;;;11.00;89.20;;;;;;5078736;28;20483;-73
2021/10/25 06:02:50;;;;;;;10.35;4.82;;;11.00;88.70;;;;;;5079952;28;20024;-73
2021/10/25 06:05:16;;;;;;;8.30;4.18;;;11.00;88.70;;;;;;5087300;28;20021;-73
2021/10/25 06:07:42;;;;;;;12.70;4.95;;;10.90;88.80;;;;;;5086520;28;20024;-72
2021/10/25 06:10:10;;;;;;;10.40;4.45;;;11.00;89.10;;;;;;5080067;28;20171;-72
2021/10/25 06:12:40;;;;;;;8.13;3.90;;;11.00;89.20;;;;;;5079233;28;20024;-72
2021/10/25 06:15:11;;;;;;;8.10;4.00;;;11.00;89.20;;;;;;5086279;28;20527;-72
2021/10/25 06:17:51;;;;;;;6.40;3.65;;;11.00;89.30;;;;;;5085249;28;20794;-72
2021/10/25 06:20:17;;;;;;;6.82;3.35;;;11.00;89.30;;;;;;5079436;28;20134;-72
2021/10/25 06:22:43;;;;;;;5.78;3.15;;;11.00;89.30;;;;;;5079584;28;20372;-72
2021/10/25 06:25:13;;;;;;;6.90;3.45;;;11.00;89.30;;;;;;5079247;28;20078;-72
2021/10/25 06:27:40;;;;;;;9.00;3.35;;;11.10;89.10;;;;;;5079132;28;20024;-72
2021/10/25 06:30:06;;;;;;;7.47;3.25;;;11.00;88.90;;;;;;5079361;28;20055;-72
2021/10/25 06:32:32;;;;;;;7.88;3.08;;;11.00;88.80;;;;;;5085993;28;20143;-72
2021/10/25 06:35:01;;;;;;;5.75;3.08;;;11.00;88.80;;;;;;5089907;28;20064;-72
2021/10/25 06:37:33;;;;;;;8.68;3.50;;;10.90;88.90;;;;;;5092455;28;20139;-72
2021/10/25 06:40:03;;;;;;;5.97;3.25;;;10.90;88.90;;;;;;5079029;28;20064;-72
2021/10/25 06:42:29;;;;;;;16.92;8.10;;;10.90;88.90;;;;;;5079052;28;20111;-71
2021/10/25 06:44:56;;;;;;;30.27;14.85;;;10.80;88.80;;;;;;5078999;28;20064;-72
2021/10/25 06:47:22;;;;;;;30.85;17.30;;;10.80;88.80;;;;;;5078769;28;20040;-72
2021/10/25 06:49:49;;;;;;;26.60;13.65;;;10.70;88.80;;;;;;5078635;28;20029;-72
2021/10/25 06:52:15;;;;;;;19.23;11.05;;;10.70;89.00;;;;;;5078715;28;20029;-71
2021/10/25 06:54:40;;;;;;;20.48;9.75;;;10.70;89.10;;;;;;5078811;28;20028;-72
2021/10/25 06:57:06;;;;;;;16.63;9.05;;;10.70;89.30;;;;;;5079074;28;20107;-72
2021/10/25 06:59:32;;;;;;;15.68;7.82;;;10.70;89.30;;;;;;5078751;28;20020;-72
2021/10/25 07:01:58;;;;;;;14.93;6.57;;;10.80;89.40;;;;;;5078769;28;20497;-71
2021/10/25 07:04:24;;;;;;;13.77;6.50;;;10.80;89.50;;;;;;5078367;28;20543;-71
2021/10/25 07:06:52;;;;;;;28.70;11.50;;;10.90;89.70;;;;;;5078980;28;20051;-71
2021/10/25 07:09:19;;;;;;;31.52;13.73;;;10.90;89.70;;;;;;5078473;28;20107;-72
2021/10/25 07:11:45;;;;;;;31.10;12.38;;;10.90;89.60;;;;;;5078105;28;20021;-72
2021/10/25 07:14:13;;;;;;;28.50;14.43;;;11.00;89.70;;;;;;5091173;28;20154;-71
2021/10/25 07:16:53;;;;;;;26.08;11.98;;;10.90;90.00;;;;;;5078821;28;20514;-72
2021/10/25 08:05:37;;;;;;;13.50;6.20;;;11.90;90.70;;;;;;5097602;28;20161;-72
2021/10/25 08:08:20;;;;;;;12.18;6.07;;;12.00;90.80;;;;;;5097400;28;20028;-72
2021/10/25 08:10:53;;;;;;;16.08;6.28;;;12.10;90.90;;;;;;5097950;28;20020;-71
2021/10/25 08:13:20;;;;;;;16.17;8.40;;;12.20;90.80;;;;;;5084213;28;20028;-72
2021/10/25 08:15:46;;;;;;;16.05;7.43;;;12.30;91.10;;;;;;5084649;28;20110;-72
2021/10/25 08:18:36;;;;;;;25.20;10.18;;;12.40;91.20;;;;;;5076817;28;20398;-72
2021/10/25 08:21:02;;;;;;;62.80;30.50;;;12.50;91.60;;;;;;5077031;28;20025;-72
2021/10/25 08:23:28;;;;;;;78.07;36.45;;;12.60;91.80;;;;;;5077175;28;20029;-72
2021/10/25 08:25:54;;;;;;;62.35;28.85;;;12.70;91.60;;;;;;5077195;28;20074;-72
2021/10/25 08:28:20;;;;;;;124.13;46.03;;;12.80;91.60;;;;;;5075857;28;20082;-72
2021/10/25 08:30:46;;;;;;;97.68;34.13;;;12.80;91.60;;;;;;5077026;28;20025;-72
2021/10/25 08:34:05;;;;;;;46.78;17.60;;;13.00;91.90;;;;;;5089521;28;20036;-72
2021/10/25 08:41:31;;;;;;;14.75;7.10;;;13.80;92.50;;;;;;5088410;28;20023;-72
2021/10/25 08:44:05;;;;;;;19.33;9.52;;;14.10;92.40;;;;;;5078386;28;20031;-72
2021/10/25 08:46:31;;;;;;;17.83;7.85;;;14.30;92.20;;;;;;5077069;28;20045;-72
2021/10/25 08:48:57;;;;;;;16.23;6.93;;;14.40;92.00;;;;;;5076577;28;20503;-72
2021/10/25 08:51:24;;;;;;;18.67;7.25;;;14.50;91.70;;;;;;5076976;28;20613;-72
2021/10/25 08:53:51;;;;;;;13.32;6.18;;;14.60;91.50;;;;;;5076473;28;20032;-72
2021/10/25 08:56:18;;;;;;;13.68;6.75;;;14.70;91.40;;;;;;5076861;28;20052;-72
2021/10/25 08:58:48;;;;;;;16.98;5.82;;;14.60;91.40;;;;;;5076994;28;20021;-72
2021/10/25 09:01:34;;;;;;;15.23;5.53;;;14.70;91.40;;;;;;5076804;28;20025;-72
2021/10/25 09:04:03;;;;;;;17.52;6.07;;;14.70;91.30;;;;;;5076676;28;20487;-72
2021/10/25 09:06:29;;;;;;;10.40;5.03;;;14.80;91.20;;;;;;5076772;28;20487;-72
2021/10/25 09:09:00;;;;;;;18.52;5.45;;;14.80;91.10;;;;;;5076444;28;20055;-72
2021/10/25 09:11:25;;;;;;;12.75;5.10;;;14.80;91.10;;;;;;5076166;28;20025;-72
2021/10/25 09:13:51;;;;;;;13.05;5.53;;;14.80;91.10;;;;;;5088686;28;20561;-72
2021/10/25 09:16:18;;;;;;;17.38;8.05;;;14.70;91.00;;;;;;5084165;28;20137;-72
2021/10/25 09:18:43;;;;;;;12.40;5.85;;;14.70;91.00;;;;;;5080277;28;20028;-72
2021/10/25 09:21:10;;;;;;;14.65;5.30;;;14.70;91.00;;;;;;5080154;28;20025;-72
2021/10/25 09:23:42;;;;;;;13.93;5.80;;;14.70;91.00;;;;;;5080728;28;20467;-72
2021/10/25 09:26:13;;;;;;;11.73;5.35;;;14.80;91.10;;;;;;5080457;28;20024;-72
2021/10/25 09:28:53;;;;;;;13.10;4.72;;;14.80;91.10;;;;;;5080125;28;20036;-72
2021/10/25 09:31:33;;;;;;;9.68;5.68;;;14.80;91.00;;;;;;5088303;28;20390;-73
2021/10/25 09:34:06;;;;;;;16.08;5.88;;;14.80;91.00;;;;;;5097345;28;20507;-72
2021/10/25 09:36:50;;;;;;;13.32;5.30;;;14.90;91.00;;;;;;5090455;28;20021;-72
2021/10/25 09:39:22;;;;;;;15.20;4.82;;;15.00;91.20;;;;;;5099775;28;20061;-72
2021/10/25 09:49:57;;;;;;;13.93;6.10;;;15.70;91.30;;;;;;5100207;28;20074;-72
2021/10/25 09:52:32;;;;;;;8.80;4.43;;;16.00;91.20;;;;;;5100144;28;20034;-72
2021/10/25 09:55:07;;;;;;;8.27;4.20;;;16.20;91.00;;;;;;5088483;28;20502;-72
2021/10/25 09:57:42;;;;;;;12.75;4.75;;;16.50;90.90;;;;;;5089317;28;20024;-72
2021/10/25 10:00:09;;;;;;;10.73;4.65;;;16.80;90.90;;;;;;5079760;28;20017;-72
2021/10/25 10:02:37;;;;;;;11.68;4.45;;;17.20;90.80;;;;;;5079725;28;20107;-72
2021/10/25 10:05:06;;;;;;;12.10;4.13;;;17.50;90.50;;;;;;5080066;28;20054;-72
2021/10/25 10:07:33;;;;;;;12.13;4.38;;;18.00;90.90;;;;;;5080164;28;20028;-72
2021/10/25 10:09:59;;;;;;;9.05;3.15;;;18.70;90.90;;;;;;5080102;28;20028;-72
2021/10/25 10:12:27;;;;;;;11.57;4.07;;;19.60;89.70;;;;;;5079357;28;20395;-72
2021/10/25 10:15:00;;;;;;;9.65;3.90;;;20.30;88.20;;;;;;5093156;28;20046;-72
2021/10/25 10:17:33;;;;;;;12.00;3.60;;;21.00;86.70;;;;;;5079546;28;20019;-72
2021/10/25 10:20:26;;;;;;;12.45;3.92;;;21.70;81.50;;;;;;5087271;28;20540;-72
2021/10/25 10:22:57;;;;;;;11.75;3.67;;;21.80;81.40;;;;;;5078103;28;20040;-72
2021/10/25 10:25:37;;;;;;;10.18;3.20;;;22.20;79.70;;;;;;5078910;28;20430;-73
2021/10/25 10:28:10;;;;;;;10.70;2.80;;;22.40;77.90;;;;;;5087167;28;20031;-73
2021/10/25 10:30:57;;;;;;;11.93;3.42;;;22.70;72.90;;;;;;5084493;28;20103;-72
2021/10/25 10:33:40;;;;;;;11.65;4.70;;;22.90;71.00;;;;;;5093416;28;20025;-73
2021/10/25 10:36:15;;;;;;;9.82;3.85;;;23.10;69.80;;;;;;5086151;28;20479;-73
2021/10/25 10:38:50;;;;;;;11.75;4.35;;;23.20;68.00;;;;;;5083955;28;20098;-73
2021/10/25 10:41:19;;;;;;;9.60;3.60;;;22.90;68.30;;;;;;5079388;28;20032;-75
2021/10/25 10:44:00;;;;;;;10.25;3.30;;;22.50;67.50;;;;;;5079063;28;20028;-74
2021/10/25 10:46:26;;;;;;;14.88;4.55;;;22.10;69.20;;;;;;5079247;28;20024;-72
2021/10/25 10:49:00;;;;;;;12.30;4.60;;;21.80;71.40;;;;;;5081885;28;20036;-73
2021/10/25 10:51:32;;;;;;;13.10;4.30;;;21.70;71.10;;;;;;5092245;28;20073;-74
2021/10/25 10:54:09;;;;;;;13.02;3.92;;;21.80;71.60;;;;;;5077801;28;20032;-76
2021/10/25 10:56:53;;;;;;;18.58;4.50;;;22.20;72.40;;;;;;5078891;28;20020;-73
2021/10/25 10:59:34;;;;;;;13.80;4.38;;;22.50;72.20;;;;;;5078769;28;20028;-75
2021/10/25 11:02:00;;;;;;;13.85;4.28;;;22.90;71.80;;;;;;5085468;28;20107;-73
2021/10/25 11:04:33;;;;;;;16.58;5.10;;;22.90;67.10;;;;;;5085296;28;20113;-74
2021/10/25 11:07:04;;;;;;;19.48;4.40;;;22.90;64.90;;;;;;5079385;28;20027;-76
2021/10/25 11:09:31;;;;;;;17.13;6.15;;;23.00;66.60;;;;;;5077294;28;20025;-76
2021/10/25 11:12:09;;;;;;;17.65;5.25;;;23.10;69.00;;;;;;5078629;28;20027;-76
2021/10/25 11:14:39;;;;;;;15.00;4.53;;;23.40;66.30;;;;;;5092400;28;20130;-76
2021/10/25 11:17:20;;;;;;;16.42;4.50;;;23.70;67.70;;;;;;5078376;28;20042;-74
2021/10/25 11:19:55;;;;;;;14.80;4.35;;;24.00;66.60;;;;;;5078596;28;20024;-72
2021/10/25 11:22:32;;;;;;;14.95;4.13;;;24.20;65.90;;;;;;5078236;28;20467;-73
2021/10/25 11:25:00;;;;;;;11.05;4.53;;;24.40;64.80;;;;;;5087171;28;20020;-76
2021/10/25 11:27:32;;;;;;;14.07;3.17;;;24.50;66.70;;;;;;5082973;28;20429;-73
2021/10/25 11:30:08;;;;;;;23.08;10.13;;;24.70;63.40;;;;;;5078363;28;20055;-74
2021/10/25 11:32:36;;;;;;;43.30;22.17;;;24.80;64.60;;;;;;5085666;28;20064;-75
2021/10/25 11:35:05;;;;;;;17.50;7.32;;;24.80;64.40;;;;;;5087633;28;20073;-73
2021/10/25 11:37:31;;;;;;;13.73;3.58;;;24.90;64.20;;;;;;5091617;28;20128;-74
2021/10/25 11:40:06;;;;;;;14.85;3.33;;;24.90;62.10;;;;;;5078263;28;20017;-74
2021/10/25 11:42:40;;;;;;;13.05;3.00;;;24.80;62.60;;;;;;5085159;28;20016;-74
2021/10/25 11:45:15;;;;;;;13.57;2.80;;;24.70;60.00;;;;;;5083913;28;20039;-72
2021/10/25 11:47:43;;;;;;;11.93;2.72;;;24.60;60.70;;;;;;5091406;28;20020;-74
2021/10/25 11:50:17;;;;;;;12.68;3.25;;;24.40;61.80;;;;;;5089896;28;20133;-76
2021/10/25 11:52:46;;;;;;;12.57;3.03;;;24.20;61.00;;;;;;5084711;28;20089;-76
2021/10/25 11:55:15;;;;;;;12.45;2.72;;;23.90;62.10;;;;;;5092721;28;20035;-75
2021/10/25 11:57:50;;;;;;;15.13;4.15;;;23.50;61.90;;;;;;5096555;28;20039;-75
2021/10/25 12:00:19;;;;;;;12.70;3.45;;;23.20;63.20;;;;;;5097600;28;20065;-75
2021/10/25 12:02:45;;;;;;;12.05;3.10;;;22.90;63.50;;;;;;5087914;28;20056;-74
2021/10/25 12:05:11;;;;;;;15.40;3.22;;;22.60;63.20;;;;;;5097906;28;20070;-75
2021/10/25 12:07:48;;;;;;;11.15;3.20;;;22.30;62.70;;;;;;5097684;28;20047;-74
2021/10/25 12:10:15;;;;;;;13.65;2.85;;;22.00;63.70;;;;;;5097706;28;20024;-74
2021/10/25 12:12:42;;;;;;;13.82;4.18;;;21.80;64.00;;;;;;5086977;28;20050;-74
2021/10/25 12:15:13;;;;;;;11.80;2.97;;;21.60;64.50;;;;;;5088001;28;20372;-74
2021/10/25 12:17:39;;;;;;;14.02;3.33;;;21.40;65.50;;;;;;5097538;28;20024;-75
2021/10/25 12:20:11;;;;;;;9.50;2.78;;;21.30;65.50;;;;;;5095724;28;20038;-74
2021/10/25 12:22:38;;;;;;;11.80;3.28;;;21.40;66.60;;;;;;5097379;28;20035;-74
2021/10/25 12:25:05;;;;;;;12.07;3.45;;;21.50;65.70;;;;;;5097693;28;20081;-74
2021/10/25 12:27:42;;;;;;;19.58;3.67;;;21.60;65.50;;;;;;5097330;28;20036;-74
2021/10/25 12:30:14;;;;;;;12.35;3.05;;;21.70;65.60;;;;;;5096830;28;20548;-74
2021/10/25 12:33:11;;;;;;;10.65;2.30;;;21.80;66.50;;;;;;5092080;28;20051;-74
2021/10/25 12:35:39;;;;;;;12.20;3.17;;;22.00;66.60;;;;;;5070076;28;20044;-74
2021/10/25 12:38:09;;;;;;;9.32;2.40;;;22.10;66.50;;;;;;5077347;28;20071;-74
2021/10/25 12:40:41;;;;;;;14.50;2.65;;;22.10;64.70;;;;;;5075712;28;20032;-75
2021/10/25 12:43:08;;;;;;;9.38;3.00;;;22.20;66.40;;;;;;5089249;28;20024;-74
2021/10/25 12:45:40;;;;;;;13.07;2.83;;;22.40;67.10;;;;;;5078976;28;20037;-74
2021/10/25 12:48:07;;;;;;;10.20;2.50;;;22.40;66.30;;;;;;5076535;28;20059;-74
2021/10/25 12:50:35;;;;;;;10.82;3.08;;;22.50;65.80;;;;;;5077194;28;20058;-74
2021/10/25 12:53:13;;;;;;;12.90;2.47;;;22.50;64.80;;;;;;5077249;28;20475;-73
2021/10/25 12:55:40;;;;;;;10.50;2.45;;;22.50;65.00;;;;;;5089066;28;20029;-74
2021/10/25 12:58:11;;;;;;;31.30;12.02;;;22.40;64.30;;;;;;5076922;28;20028;-73
2021/10/25 13:00:38;;;;;;;37.03;19.60;;;22.30;64.00;;;;;;5075673;28;20020;-73
2021/10/25 13:03:11;;;;;;;16.08;6.18;;;22.10;63.30;;;;;;5076930;28;20044;-73
2021/10/25 13:05:39;;;;;;;12.23;2.88;;;22.00;64.50;;;;;;5077081;28;20096;-73
2021/10/25 13:08:07;;;;;;;11.20;2.55;;;21.80;63.90;;;;;;5076966;28;20021;-74
2021/10/25 13:10:39;;;;;;;11.38;2.50;;;21.80;64.20;;;;;;5077299;28;20029;-73
2021/10/25 13:13:07;;;;;;;12.70;2.72;;;21.60;62.40;;;;;;5080669;28;20103;-72
2021/10/25 13:15:34;;;;;;;11.80;3.25;;;21.60;65.20;;;;;;5086476;28;20025;-73
2021/10/25 13:18:01;;;;;;;17.90;3.10;;;21.70;66.70;;;;;;5076565;28;20012;-72
2021/10/25 13:20:31;;;;;;;18.13;2.72;;;21.70;67.70;;;;;;5077049;28;20028;-73
2021/10/25 13:23:00;;;;;;;10.35;2.20;;;21.80;68.40;;;;;;5076889;28;20021;-72
2021/10/25 13:25:27;;;;;;;10.93;2.70;;;21.80;68.00;;;;;;5076916;28;20028;-73
2021/10/25 13:27:55;;;;;;;9.93;2.55;;;21.60;67.90;;;;;;5075489;28;20426;-73
2021/10/25 13:30:22;;;;;;;10.48;2.42;;;21.40;67.60;;;;;;5076824;28;20024;-72
2021/10/25 13:32:49;;;;;;;15.00;3.50;;;21.30;68.70;;;;;;5086060;28;20043;-72
2021/10/25 13:35:15;;;;;;;14.57;3.58;;;21.20;69.20;;;;;;5084091;28;20029;-72
2021/10/25 13:37:42;;;;;;;10.95;3.10;;;21.10;69.70;;;;;;5089597;28;20048;-73
2021/10/25 13:40:09;;;;;;;12.38;3.83;;;20.90;69.60;;;;;;5076472;28;20036;-73
2021/10/25 13:42:36;;;;;;;12.73;3.15;;;20.70;69.00;;;;;;5076682;28;20020;-73
2021/10/25 13:45:04;;;;;;;16.73;4.03;;;20.50;70.00;;;;;;5076379;28;20033;-73
2021/10/25 13:47:30;;;;;;;18.30;4.85;;;20.30;69.80;;;;;;5076589;28;20028;-72
2021/10/25 13:49:56;;;;;;;13.13;4.43;;;20.00;70.60;;;;;;5076090;28;20036;-73
2021/10/25 13:52:23;;;;;;;19.35;5.20;;;19.90;70.90;;;;;;5076985;28;20017;-73
2021/10/25 13:54:49;;;;;;;24.92;5.95;;;19.70;71.30;;;;;;5076235;28;20033;-73
2021/10/25 13:57:21;;;;;;;18.38;4.80;;;19.60;72.00;;;;;;5076656;28;20013;-73
2021/10/25 13:59:50;;;;;;;17.00;5.78;;;19.40;72.30;;;;;;5076586;28;20032;-73
2021/10/25 14:02:17;;;;;;;8.80;4.45;;;19.40;73.10;;;;;;5079795;28;20423;-72
2021/10/25 14:04:47;;;;;;;17.17;4.72;;;19.30;73.10;;;;;;5079941;28;20100;-73
2021/10/25 14:07:18;;;;;;;15.75;5.50;;;19.20;73.30;;;;;;5080245;28;20023;-72
2021/10/25 14:09:52;;;;;;;12.13;4.00;;;19.20;73.40;;;;;;5079617;28;20492;-72
2021/10/25 14:12:21;;;;;;;9.45;3.28;;;19.10;73.70;;;;;;5079814;28;20016;-73
2021/10/25 14:14:47;;;;;;;13.52;3.67;;;19.10;74.20;;;;;;5093761;28;20073;-72
2021/10/25 14:17:13;;;;;;;8.77;3.30;;;19.10;74.40;;;;;;5079551;28;20021;-72
2021/10/25 14:19:40;;;;;;;15.68;3.17;;;19.10;74.50;;;;;;5079899;28;20036;-72